Time;durP1;ratioP1;P1;durP2;ratioP2;P2;SDS_P1;SDS_P2;PMS_P1;PMS_P2;Temp;Humidity;BMP_temperature;BMP_pressure;BME280_temperature;BME280_humidity;BME280_pressure;Samples;Min_cycle;Max_cycle;Signal;HPM_P1;HPM_P2
2022/01/05 00:00:44;;;;;;;12.82;7.10;;;;;;;3.70;97.38;97707.34;1750116;80;21134;-68
2022/01/05 00:03:11;;;;;;;11.88;6.95;;;;;;;3.75;97.68;97709.13;1756000;81;21104;-67
2022/01/05 00:05:39;;;;;;;10.40;6.58;;;;;;;3.80;97.79;97694.55;1749155;81;20869;-67
2022/01/05 00:08:08;;;;;;;12.65;6.90;;;;;;;3.86;97.91;97686.45;1751772;81;21536;-68
2022/01/05 00:10:35;;;;;;;13.00;7.97;;;;;;;3.91;97.91;97694.46;1754465;81;20930;-68
2022/01/05 00:13:01;;;;;;;12.28;6.67;;;;;;;3.95;97.96;97689.17;1757298;81;21429;-67
2022/01/05 00:15:28;;;;;;;16.15;7.15;;;;;;;3.98;97.93;97685.80;1757194;81;21080;-68
2022/01/05 00:17:56;;;;;;;17.73;7.92;;;;;;;4.01;97.96;97682.43;1752758;81;21372;-69
2022/01/05 00:20:24;;;;;;;19.00;8.03;;;;;;;4.04;97.93;97685.91;1762255;81;21064;-69
2022/01/05 00:22:51;;;;;;;20.82;9.33;;;;;;;4.07;97.88;97674.35;1758584;81;20908;-68
2022/01/05 00:25:18;;;;;;;16.25;8.73;;;;;;;4.09;97.76;97675.39;1732545;81;21069;-67
2022/01/05 00:27:44;;;;;;;13.93;7.80;;;;;;;4.10;97.70;97668.80;1754501;81;21498;-69
2022/01/05 00:30:12;;;;;;;11.70;7.20;;;;;;;4.10;97.62;97668.25;1751023;81;21458;-68
2022/01/05 00:32:38;;;;;;;11.28;6.97;;;;;;;4.09;97.69;97664.48;1748746;81;21031;-69
2022/01/05 00:35:06;;;;;;;11.43;6.95;;;;;;;4.11;97.74;97667.70;1755345;81;20902;-68
2022/01/05 00:37:33;;;;;;;12.30;6.85;;;;;;;4.13;97.91;97667.60;1755795;81;20987;-69
2022/01/05 00:40:01;;;;;;;9.10;6.50;;;;;;;4.17;97.93;97664.23;1759901;81;21071;-68
2022/01/05 00:42:28;;;;;;;11.45;6.85;;;;;;;4.21;98.03;97659.19;1758918;81;21031;-69
2022/01/05 00:44:57;;;;;;;12.63;7.28;;;;;;;4.25;98.11;97655.23;1755331;81;20932;-70
2022/01/05 00:47:23;;;;;;;11.95;6.60;;;;;;;4.30;98.15;97654.28;1751080;81;21561;-69
2022/01/05 00:49:50;;;;;;;9.65;6.03;;;;;;;4.32;98.04;97654.19;1756159;81;21090;-71
2022/01/05 00:52:17;;;;;;;13.13;7.05;;;;;;;4.34;97.99;97643.76;1757466;81;21523;-68
2022/01/05 00:54:45;;;;;;;9.53;6.17;;;;;;;4.36;97.94;97642.06;1750041;80;21079;-68
2022/01/05 00:57:13;;;;;;;13.18;6.85;;;;;;;4.38;98.01;97638.45;1755889;81;22005;-68
2022/01/05 00:59:40;;;;;;;11.90;6.10;;;;;;;4.41;97.97;97638.36;1754926;81;20974;-67
2022/01/05 01:02:08;;;;;;;11.12;6.17;;;;;;;4.44;97.97;97632.25;1756214;81;21015;-69
2022/01/05 01:04:39;;;;;;;11.05;5.92;;;;;;;4.45;97.91;97621.59;1750390;80;20868;-67
2022/01/05 01:07:08;;;;;;;11.18;7.03;;;;;;;4.45;97.84;97621.01;1750700;81;21035;-68
2022/01/05 01:09:34;;;;;;;10.98;6.45;;;;;;;4.46;97.88;97620.45;1757389;81;21222;-69
2022/01/05 01:12:01;;;;;;;12.47;7.10;;;;;;;4.50;97.95;97618.69;1757310;81;21597;-67
2022/01/05 01:14:28;;;;;;;15.95;6.40;;;;;;;4.53;97.98;97619.40;1755866;81;21045;-66
2022/01/05 01:16:57;;;;;;;13.65;6.78;;;;;;;4.57;97.88;97616.23;1755898;81;21175;-69
2022/01/05 01:19:27;;;;;;;12.03;6.55;;;;;;;4.60;97.88;97620.25;1753327;81;20964;-69
2022/01/05 01:21:54;;;;;;;11.48;6.35;;;;;;;4.59;97.72;97604.44;1752116;81;20997;-67
2022/01/05 01:24:20;;;;;;;14.35;6.25;;;;;;;4.59;97.55;97607.17;1749427;80;21468;-69
2022/01/05 01:26:48;;;;;;;13.10;7.37;;;;;;;4.59;97.66;97603.08;1749878;81;21479;-69
2022/01/05 01:29:16;;;;;;;9.50;5.85;;;;;;;4.60;97.66;97597.06;1748636;81;21914;-67
2022/01/05 01:31:42;;;;;;;9.90;6.50;;;;;;;4.59;97.42;97593.53;1755794;81;21085;-69
2022/01/05 01:34:08;;;;;;;14.60;6.92;;;;;;;4.59;97.53;97590.02;1754750;81;21146;-67
2022/01/05 01:36:36;;;;;;;11.45;6.87;;;;;;;4.61;97.61;97582.28;1757946;81;21059;-69
2022/01/05 01:39:04;;;;;;;12.53;6.55;;;;;;;4.63;97.54;97571.30;1757038;81;21041;-68
2022/01/05 01:41:31;;;;;;;12.90;7.03;;;;;;;4.64;97.47;97572.08;1752835;81;21500;-68
2022/01/05 01:43:57;;;;;;;18.52;7.35;;;;;;;4.65;97.36;97558.69;1761427;81;20968;-68
2022/01/05 01:46:23;;;;;;;14.20;6.67;;;;;;;4.63;97.21;97557.66;1757554;81;21451;-68
2022/01/05 01:48:50;;;;;;;11.50;5.87;;;;;;;4.63;97.24;97551.39;1718613;81;20973;-67
2022/01/05 01:51:17;;;;;;;13.72;7.05;;;;;;;4.63;97.26;97536.39;1749780;80;20983;-66
2022/01/05 01:53:45;;;;;;;8.73;6.30;;;;;;;4.63;97.22;97544.57;1745539;81;21521;-69
2022/01/05 01:56:12;;;;;;;13.75;6.70;;;;;;;4.65;97.26;97534.69;1741923;81;20929;-70
2022/01/05 01:58:39;;;;;;;14.18;7.28;;;;;;;4.65;97.16;97527.88;1745388;81;20956;-68
2022/01/05 02:01:13;;;;;;;18.00;7.72;;;;;;;4.65;97.18;97532.77;1745629;81;21036;-69
2022/01/05 02:03:40;;;;;;;12.73;6.33;;;;;;;4.65;97.12;97527.88;1745643;81;20948;-67
2022/01/05 02:06:06;;;;;;;9.88;6.35;;;;;;;4.68;97.16;97524.48;1743318;81;21502;-71
2022/01/05 02:08:36;;;;;;;11.45;6.75;;;;;;;4.68;97.00;97519.02;1742528;81;20976;-69
2022/01/05 02:11:03;;;;;;;11.88;6.17;;;;;;;4.67;96.96;97517.44;1724273;82;21047;-70
2022/01/05 02:13:30;;;;;;;11.70;7.12;;;;;;;4.69;97.05;97512.45;1727896;81;20967;-69
2022/01/05 02:15:59;;;;;;;12.60;6.92;;;;;;;4.70;97.05;97512.67;1747225;81;21543;-68
2022/01/05 02:21:08;;;;;;;12.47;6.83;;;;;;;4.73;96.93;97507.36;1740156;81;20981;-68
2022/01/05 02:23:35;;;;;;;11.45;7.37;;;;;;;4.73;96.84;97512.82;1746293;81;20968;-70
2022/01/05 02:26:04;;;;;;;12.10;6.92;;;;;;;4.75;96.83;97512.48;1742718;81;20992;-69
2022/01/05 02:28:31;;;;;;;16.37;7.53;;;;;;;4.77;96.79;97512.16;1745028;81;21481;-70
2022/01/05 02:30:57;;;;;;;13.60;7.42;;;;;;;4.78;96.73;97500.13;1745611;81;21508;-69
2022/01/05 02:33:25;;;;;;;11.22;6.45;;;;;;;4.79;96.70;97503.08;1726306;81;21167;-70
2022/01/05 02:35:53;;;;;;;13.25;6.40;;;;;;;4.82;96.69;97504.59;1745408;81;20976;-70
2022/01/05 02:38:21;;;;;;;12.07;6.87;;;;;;;4.82;96.59;97508.68;1745504;81;20900;-68
2022/01/05 02:40:50;;;;;;;12.65;6.42;;;;;;;4.85;96.54;97499.02;1745105;81;21532;-71
2022/01/05 02:43:16;;;;;;;13.70;6.22;;;;;;;4.87;96.51;97498.12;1744364;81;21129;-67
2022/01/05 02:45:46;;;;;;;12.98;6.40;;;;;;;4.89;96.36;97495.06;1740894;81;21015;-67
2022/01/05 02:48:12;;;;;;;14.78;6.40;;;;;;;4.90;96.22;97489.83;1741368;81;20937;-69
2022/01/05 02:50:40;;;;;;;12.43;6.12;;;;;;;4.92;96.20;97479.38;1747341;81;20981;-70
2022/01/05 02:53:07;;;;;;;14.18;6.17;;;;;;;4.93;96.03;97485.87;1712973;81;21265;-69
2022/01/05 02:55:34;;;;;;;13.58;5.95;;;;;;;4.96;95.92;97486.59;1741975;81;21737;-69
2022/01/05 02:58:01;;;;;;;14.63;6.62;;;;;;;4.97;95.76;97490.91;1745321;81;21000;-71
2022/01/05 03:00:29;;;;;;;14.47;6.42;;;;;;;4.99;95.75;97489.22;1745459;81;20956;-71
2022/01/05 03:02:56;;;;;;;11.38;6.00;;;;;;;5.01;95.62;97482.86;1745547;81;21016;-67
2022/01/05 03:05:24;;;;;;;10.60;5.90;;;;;;;5.04;95.46;97482.75;1747402;81;20984;-71
2022/01/05 03:07:53;;;;;;;13.43;6.78;;;;;;;5.05;95.37;97485.73;1743749;81;21501;-71
2022/01/05 03:10:21;;;;;;;13.30;6.45;;;;;;;5.05;95.23;97485.14;1721863;81;21067;-72
2022/01/05 03:12:51;;;;;;;15.98;6.15;;;;;;;5.07;95.15;97487.54;1747370;81;20956;-69
2022/01/05 03:15:18;;;;;;;9.93;6.10;;;;;;;5.08;95.06;97483.11;1740682;81;21146;-70
2022/01/05 03:17:45;;;;;;;17.73;7.30;;;;;;;5.10;94.93;97489.05;1743760;81;21540;-70
2022/01/05 03:20:13;;;;;;;13.15;6.53;;;;;;;5.11;94.82;97491.22;1743854;81;21485;-69
2022/01/05 03:22:43;;;;;;;13.35;6.35;;;;;;;5.13;94.76;97497.70;1743682;81;21013;-71
2022/01/05 03:25:16;;;;;;;16.77;6.83;;;;;;;5.16;94.55;97495.67;1742431;81;20988;-70
2022/01/05 03:27:45;;;;;;;9.80;5.83;;;;;;;5.18;94.37;97492.05;1742687;81;20929;-71
2022/01/05 03:30:19;;;;;;;10.35;6.40;;;;;;;5.19;94.24;97493.08;1745348;81;21141;-71
2022/01/05 03:35:24;;;;;;;13.83;6.70;;;;;;;5.23;94.00;97482.28;1742004;81;20976;-70
2022/01/05 03:37:51;;;;;;;11.85;6.33;;;;;;;5.24;93.90;97489.33;1746168;81;20960;-68
2022/01/05 03:40:18;;;;;;;14.87;6.70;;;;;;;5.26;93.74;97487.08;1724498;81;21098;-68
2022/01/05 03:42:45;;;;;;;12.53;6.58;;;;;;;5.29;93.59;97488.35;1742216;81;21374;-69
2022/01/05 03:45:12;;;;;;;13.15;6.45;;;;;;;5.30;93.48;97494.03;1743635;81;22011;-69
2022/01/05 03:47:40;;;;;;;12.82;7.33;;;;;;;5.30;93.41;97492.11;1745621;81;21537;-69
2022/01/05 03:50:09;;;;;;;10.58;6.30;;;;;;;5.31;93.25;97499.16;1745572;81;21043;-68
2022/01/05 03:52:37;;;;;;;14.50;6.75;;;;;;;5.33;93.03;97493.36;1745305;81;20991;-69
2022/01/05 03:55:05;;;;;;;11.00;6.33;;;;;;;5.33;92.91;97492.00;1747492;81;20957;-69
2022/01/05 03:57:34;;;;;;;10.78;5.58;;;;;;;5.33;92.71;97486.53;1743733;81;21106;-66
2022/01/05 04:00:01;;;;;;;10.65;6.30;;;;;;;5.32;92.71;97481.62;1743809;81;20908;-67
2022/01/05 04:02:29;;;;;;;13.55;6.70;;;;;;;5.32;92.71;97467.97;1745610;81;20991;-68
2022/01/05 04:04:56;;;;;;;11.33;6.03;;;;;;;5.31;92.79;97481.41;1743816;81;21477;-68
2022/01/05 04:07:24;;;;;;;13.45;6.60;;;;;;;5.31;93.04;97469.67;1742354;81;21217;-67
2022/01/05 04:09:50;;;;;;;11.08;6.00;;;;;;;5.32;93.23;97467.97;1743670;81;21502;-67
2022/01/05 04:12:17;;;;;;;10.72;6.15;;;;;;;5.34;93.37;97465.71;1714115;81;21517;-68
2022/01/05 04:14:47;;;;;;;10.35;6.65;;;;;;;5.35;93.48;97460.50;1743720;81;21042;-68
2022/01/05 04:17:21;;;;;;;20.23;5.78;;;;;;;5.35;93.43;97457.77;1746152;81;21000;-68
2022/01/05 04:19:49;;;;;;;9.95;6.35;;;;;;;5.36;93.51;97459.35;1745646;81;21551;-67
2022/01/05 04:22:15;;;;;;;9.83;6.17;;;;;;;5.38;93.57;97458.20;1743822;81;22080;-66
2022/01/05 04:24:43;;;;;;;13.22;6.47;;;;;;;5.39;93.53;97457.09;1741954;81;20934;-69
2022/01/05 04:27:10;;;;;;;11.25;6.62;;;;;;;5.39;93.47;97465.28;1745391;81;21023;-70
2022/01/05 04:29:38;;;;;;;9.90;5.95;;;;;;;5.40;93.52;97466.31;1742087;81;20932;-70
2022/01/05 04:32:05;;;;;;;12.05;6.97;;;;;;;5.42;93.41;97461.32;1743771;81;21607;-70
2022/01/05 04:34:31;;;;;;;10.25;6.15;;;;;;;5.44;93.33;97467.22;1745883;81;21535;-70
2022/01/05 04:36:58;;;;;;;14.70;6.40;;;;;;;5.46;93.22;97466.88;1741534;81;20905;-68
2022/01/05 04:39:25;;;;;;;10.88;6.72;;;;;;;5.48;93.06;97478.28;1740202;81;20993;-67
2022/01/05 04:41:51;;;;;;;11.20;6.75;;;;;;;5.51;92.91;97494.58;1742103;81;21000;-70
2022/01/05 04:44:19;;;;;;;10.55;5.92;;;;;;;5.53;92.88;97489.56;1740312;81;20983;-70
2022/01/05 04:46:47;;;;;;;11.50;6.42;;;;;;;5.56;92.94;97493.79;1744593;81;21519;-67
2022/01/05 04:49:14;;;;;;;11.18;5.83;;;;;;;5.58;93.00;97477.86;1747327;81;20976;-70
2022/01/05 04:51:40;;;;;;;10.38;6.37;;;;;;;5.61;93.03;97472.31;1745452;81;20979;-66
2022/01/05 04:54:10;;;;;;;12.33;6.65;;;;;;;5.63;93.06;97485.05;1744910;81;21003;-68
2022/01/05 04:56:37;;;;;;;13.90;7.08;;;;;;;5.65;92.96;97476.50;1742104;81;21620;-69
2022/01/05 04:59:06;;;;;;;10.20;5.97;;;;;;;5.67;92.86;97483.80;1741609;81;21139;-70
2022/01/05 05:01:32;;;;;;;10.58;5.40;;;;;;;5.70;92.73;97477.66;1743812;81;21493;-67
2022/01/05 05:03:59;;;;;;;10.50;6.60;;;;;;;5.70;92.66;97473.00;1743789;81;21050;-69
2022/01/05 05:06:27;;;;;;;10.30;6.20;;;;;;;5.73;92.48;97472.91;1742023;81;21148;-71
2022/01/05 05:08:53;;;;;;;13.78;6.60;;;;;;;5.74;92.42;97478.59;1745661;81;20988;-70
2022/01/05 05:11:19;;;;;;;12.33;6.42;;;;;;;5.75;92.31;97480.77;1745682;81;21776;-68
2022/01/05 05:13:48;;;;;;;10.72;5.37;;;;;;;5.76;92.11;97476.33;1745494;81;21505;-68
2022/01/05 05:16:15;;;;;;;9.98;6.22;;;;;;;5.77;91.91;97467.55;1744960;81;21603;-68
2022/01/05 05:18:43;;;;;;;13.83;6.80;;;;;;;5.77;91.70;97458.78;1744637;81;20933;-69
2022/01/05 05:21:10;;;;;;;10.08;5.75;;;;;;;5.80;91.51;97460.83;1741861;81;21060;-71
2022/01/05 05:23:36;;;;;;;11.33;6.33;;;;;;;5.82;91.29;97477.70;1743900;81;21757;-69
2022/01/05 05:26:02;;;;;;;10.53;6.40;;;;;;;5.84;90.97;97482.27;1741806;81;21024;-69
2022/01/05 05:28:29;;;;;;;11.00;5.87;;;;;;;5.85;90.79;97471.55;1743883;81;20969;-70
2022/01/05 05:30:58;;;;;;;9.03;5.42;;;;;;;5.85;90.61;97485.22;1742089;81;20975;-71
2022/01/05 05:33:26;;;;;;;11.05;5.75;;;;;;;5.85;90.49;97496.16;1745466;81;21032;-70
2022/01/05 05:35:53;;;;;;;14.75;5.72;;;;;;;5.88;90.40;97500.72;1745125;81;21433;-69
2022/01/05 05:38:20;;;;;;;12.05;5.55;;;;;;;5.90;90.32;97506.66;1745527;81;20976;-71
2022/01/05 05:40:47;;;;;;;12.73;5.37;;;;;;;5.93;90.21;97515.55;1745699;81;20920;-71
2022/01/05 05:43:13;;;;;;;11.25;6.00;;;;;;;5.96;89.97;97521.13;1747157;81;21019;-71
2022/01/05 05:45:41;;;;;;;10.30;5.33;;;;;;;6.00;89.69;97525.92;1747444;81;20861;-68
2022/01/05 05:48:07;;;;;;;8.88;5.62;;;;;;;6.02;89.52;97524.44;1743771;81;21394;-70
2022/01/05 05:50:34;;;;;;;9.65;5.85;;;;;;;6.03;89.41;97527.97;1743053;81;20913;-70
2022/01/05 05:53:00;;;;;;;13.18;5.40;;;;;;;6.04;89.16;97535.84;1741169;81;20949;-66
2022/01/05 05:55:27;;;;;;;11.53;5.83;;;;;;;6.05;89.08;97527.11;1742853;81;21160;-68
2022/01/05 05:57:53;;;;;;;8.15;5.03;;;;;;;6.07;89.03;97533.04;1714475;81;20888;-69
2022/01/05 06:00:21;;;;;;;9.43;5.53;;;;;;;6.08;88.92;97534.06;1745668;81;21762;-69
2022/01/05 06:02:49;;;;;;;10.30;5.58;;;;;;;6.11;88.84;97534.53;1743686;81;21453;-69
2022/01/05 06:05:16;;;;;;;8.85;5.15;;;;;;;6.12;88.53;97541.03;1744092;81;21142;-70
2022/01/05 06:07:44;;;;;;;8.38;5.00;;;;;;;6.16;88.46;97546.63;1745381;81;21007;-69
2022/01/05 06:10:10;;;;;;;8.33;4.47;;;;;;;6.18;88.30;97554.70;1745613;81;21063;-68
2022/01/05 06:12:39;;;;;;;10.23;5.72;;;;;;;6.21;88.30;97558.12;1747208;81;22089;-70
2022/01/05 06:15:09;;;;;;;10.82;5.72;;;;;;;6.26;88.34;97561.79;1742439;81;21047;-68
2022/01/05 06:17:37;;;;;;;11.08;5.37;;;;;;;6.29;88.32;97559.74;1742892;81;20958;-69
2022/01/05 06:20:07;;;;;;;10.18;5.20;;;;;;;6.36;88.23;97549.61;1744793;81;20924;-68
2022/01/05 06:22:42;;;;;;;9.45;5.00;;;;;;;6.41;88.04;97556.23;1744206;81;20900;-69
2022/01/05 06:25:10;;;;;;;16.52;4.97;;;;;;;6.49;87.74;97558.05;1717405;81;21429;-70
2022/01/05 06:27:41;;;;;;;8.28;5.30;;;;;;;6.54;87.56;97563.30;1739865;81;20892;-70
2022/01/05 06:30:15;;;;;;;8.80;4.92;;;;;;;6.59;87.43;97571.85;1721080;81;21532;-70
2022/01/05 06:32:45;;;;;;;10.28;4.92;;;;;;;6.64;87.20;97562.05;1722130;81;20987;-69
2022/01/05 06:35:14;;;;;;;10.48;5.62;;;;;;;6.70;86.97;97564.00;1746918;81;20968;-67
2022/01/05 06:37:42;;;;;;;7.00;4.53;;;;;;;6.77;86.81;97576.52;1741954;81;21032;-68
2022/01/05 06:40:10;;;;;;;9.40;5.22;;;;;;;6.81;86.59;97571.17;1746743;81;21382;-66
2022/01/05 06:42:37;;;;;;;7.00;4.30;;;;;;;6.85;86.48;97584.97;1745577;81;20957;-71
2022/01/05 06:45:06;;;;;;;6.72;4.67;;;;;;;6.89;86.28;97579.83;1742281;81;20944;-67
2022/01/05 06:47:35;;;;;;;8.48;5.15;;;;;;;6.96;86.09;97583.36;1743710;81;21402;-69
2022/01/05 06:50:05;;;;;;;6.47;4.20;;;;;;;7.03;85.85;97591.81;1743530;81;21462;-71
2022/01/05 06:52:38;;;;;;;7.95;4.62;;;;;;;7.08;85.62;97586.66;1743537;81;21238;-74
2022/01/05 06:55:16;;;;;;;10.55;4.70;;;;;;;7.12;85.56;97594.99;1742583;80;21477;-71
2022/01/05 06:57:44;;;;;;;7.60;4.70;;;;;;;7.15;85.48;97603.89;1743822;80;21068;-72
2022/01/05 07:00:11;;;;;;;7.17;4.60;;;;;;;7.20;85.42;97602.88;1743401;81;20973;-71
2022/01/05 07:02:41;;;;;;;9.93;5.65;;;;;;;7.22;85.35;97598.64;1744648;81;20857;-73
2022/01/05 07:05:09;;;;;;;12.60;5.83;;;;;;;7.27;85.13;97598.41;1743289;80;20986;-71
2022/01/05 07:07:36;;;;;;;10.20;5.25;;;;;;;7.31;84.93;97593.03;1744718;81;21422;-72
2022/01/05 07:10:07;;;;;;;11.83;5.03;;;;;;;7.35;84.83;97602.73;1742143;81;20914;-72
2022/01/05 07:12:35;;;;;;;7.92;5.08;;;;;;;7.37;84.84;97595.75;1742576;81;21031;-72
2022/01/05 07:15:03;;;;;;;6.87;4.62;;;;;;;7.41;84.71;97599.41;1746394;81;21528;-71
2022/01/05 07:17:30;;;;;;;7.97;4.10;;;;;;;7.45;84.67;97602.83;1744241;80;20928;-69
2022/01/05 07:19:59;;;;;;;8.33;4.42;;;;;;;7.49;84.33;97616.08;1745340;81;20976;-71
2022/01/05 07:22:26;;;;;;;7.50;4.62;;;;;;;7.54;84.11;97622.69;1743365;81;20977;-67
2022/01/05 07:24:52;;;;;;;7.28;4.97;;;;;;;7.57;84.12;97634.89;1746969;81;20932;-69
2022/01/05 07:27:18;;;;;;;9.30;3.95;;;;;;;7.55;84.12;97626.45;1745545;81;21132;-71
2022/01/05 07:29:45;;;;;;;7.37;4.15;;;;;;;7.58;83.98;97630.99;1743294;81;21416;-71
2022/01/05 07:32:15;;;;;;;11.55;5.42;;;;;;;7.59;84.01;97638.09;1746525;81;21401;-71
2022/01/05 07:34:42;;;;;;;11.35;6.62;;;;;;;7.59;84.16;97635.34;1745382;81;21032;-68
2022/01/05 07:37:10;;;;;;;10.63;5.05;;;;;;;7.58;84.18;97636.48;1745690;81;21048;-70
2022/01/05 07:39:38;;;;;;;9.88;4.85;;;;;;;7.57;84.28;97634.89;1744391;81;21370;-68
2022/01/05 07:42:07;;;;;;;10.32;5.20;;;;;;;7.54;84.44;97631.69;1746504;81;21043;-72
2022/01/05 07:44:36;;;;;;;9.48;5.45;;;;;;;7.54;84.59;97626.20;1747461;81;21048;-71
2022/01/05 07:47:06;;;;;;;10.05;5.60;;;;;;;7.57;84.67;97624.73;1744949;80;20960;-70
2022/01/05 07:49:38;;;;;;;9.58;5.78;;;;;;;7.61;84.77;97629.73;1742460;81;20980;-71
2022/01/05 07:52:07;;;;;;;11.22;6.87;;;;;;;7.62;84.75;97630.54;1741847;81;21141;-69
2022/01/05 07:54:34;;;;;;;8.95;5.87;;;;;;;7.64;84.77;97632.37;1741714;81;20837;-69
2022/01/05 07:57:04;;;;;;;10.08;5.28;;;;;;;7.66;84.75;97638.28;1744167;81;20877;-71
2022/01/05 07:59:34;;;;;;;8.80;5.10;;;;;;;7.68;84.82;97644.22;1743373;81;20941;-67
2022/01/05 08:02:05;;;;;;;9.78;5.70;;;;;;;7.71;84.87;97638.63;1743401;81;21161;-68
2022/01/05 08:04:34;;;;;;;10.45;5.83;;;;;;;7.73;84.85;97645.35;1743504;81;21132;-69
2022/01/05 08:07:01;;;;;;;11.10;5.53;;;;;;;7.76;84.79;97651.50;1744647;81;20853;-69
2022/01/05 08:09:30;;;;;;;9.75;4.95;;;;;;;7.81;84.88;97671.05;1743911;81;20896;-71
2022/01/05 08:11:57;;;;;;;17.17;6.53;;;;;;;7.85;84.93;97660.16;1742059;81;20972;-70
2022/01/05 08:14:27;;;;;;;12.28;6.45;;;;;;;7.92;84.68;97669.98;1742351;81;21390;-70
2022/01/05 08:16:56;;;;;;;9.15;6.50;;;;;;;7.98;84.68;97676.02;1740977;81;21129;-71
2022/01/05 08:19:24;;;;;;;8.25;5.67;;;;;;;8.08;84.52;97670.61;1743823;80;20952;-71
2022/01/05 08:21:51;;;;;;;8.68;5.05;;;;;;;8.20;84.50;97686.23;1724374;80;21101;-72
2022/01/05 08:24:17;;;;;;;10.72;5.42;;;;;;;8.28;84.01;97673.73;1741457;80;21548;-72
2022/01/05 08:26:43;;;;;;;9.38;5.20;;;;;;;8.38;83.98;97684.78;1743839;81;21070;-67
2022/01/05 08:29:10;;;;;;;9.95;5.83;;;;;;;8.48;83.76;97680.73;1746396;81;21107;-70
2022/01/05 08:31:37;;;;;;;7.42;5.53;;;;;;;8.57;83.23;97677.05;1744177;80;21028;-68
2022/01/05 08:34:05;;;;;;;9.53;5.72;;;;;;;8.62;82.97;97676.80;1745549;81;21580;-72
2022/01/05 08:36:32;;;;;;;10.32;5.67;;;;;;;8.63;82.69;97677.03;1722884;81;21457;-68
2022/01/05 08:38:59;;;;;;;7.15;4.28;;;;;;;8.61;82.58;97675.20;1744811;81;20997;-72
2022/01/05 08:41:27;;;;;;;10.53;5.35;;;;;;;8.58;82.69;97679.44;1744673;81;21465;-72
2022/01/05 08:43:58;;;;;;;8.63;5.05;;;;;;;8.60;82.75;97677.71;1741910;81;20913;-71
2022/01/05 08:46:28;;;;;;;7.60;5.22;;;;;;;8.62;82.71;97672.67;1743311;81;20948;-72
2022/01/05 08:48:55;;;;;;;8.55;5.42;;;;;;;8.65;82.64;97659.61;1741995;81;21100;-69
2022/01/05 08:51:23;;;;;;;9.58;4.40;;;;;;;8.67;82.61;97671.05;1740738;81;21537;-73
2022/01/05 08:53:52;;;;;;;7.95;4.97;;;;;;;8.68;82.38;97666.36;1745718;81;20952;-73
2022/01/05 08:56:23;;;;;;;5.53;4.22;;;;;;;8.67;82.25;97668.86;1744963;81;20837;-68
2022/01/05 08:58:49;;;;;;;6.37;4.47;;;;;;;8.63;82.06;97661.34;1743613;81;20989;-72
2022/01/05 09:01:17;;;;;;;9.33;5.30;;;;;;;8.67;82.22;97661.44;1745663;81;20969;-69
2022/01/05 09:03:44;;;;;;;10.45;4.87;;;;;;;8.76;82.14;97662.08;1720841;81;20964;-71
2022/01/05 09:06:10;;;;;;;7.67;5.33;;;;;;;8.91;81.96;97663.80;1745855;81;21465;-69
2022/01/05 09:08:39;;;;;;;7.05;5.05;;;;;;;9.04;81.88;97660.97;1745005;81;21076;-70
2022/01/05 09:11:08;;;;;;;8.73;5.37;;;;;;;9.17;81.48;97667.96;1745090;81;21482;-70
2022/01/05 09:13:35;;;;;;;7.45;5.03;;;;;;;9.27;80.81;97657.00;1746546;80;21442;-67
2022/01/05 09:16:07;;;;;;;10.38;5.60;;;;;;;9.36;80.55;97658.19;1740596;81;21506;-69
2022/01/05 09:18:34;;;;;;;11.90;5.62;;;;;;;9.45;80.08;97660.15;1743652;81;21113;-68
2022/01/05 09:21:01;;;;;;;7.85;5.85;;;;;;;9.57;79.84;97663.95;1743358;81;20949;-70
2022/01/05 09:23:29;;;;;;;7.95;4.33;;;;;;;9.65;79.26;97677.27;1742037;81;21528;-69
2022/01/05 09:25:58;;;;;;;7.92;5.55;;;;;;;9.69;78.37;97682.28;1742250;81;20921;-67
2022/01/05 09:28:27;;;;;;;8.23;5.05;;;;;;;9.72;78.05;97683.72;1744132;80;21064;-69
2022/01/05 09:30:55;;;;;;;10.23;5.28;;;;;;;9.74;77.91;97674.53;1741085;81;21527;-69
2022/01/05 09:33:26;;;;;;;7.20;5.47;;;;;;;9.80;77.61;97681.12;1743193;81;20995;-69
2022/01/05 09:36:09;;;;;;;9.38;5.87;;;;;;;9.83;77.30;97681.78;1741982;81;20941;-71
2022/01/05 09:41:56;;;;;;;8.25;5.00;;;;;;;9.80;76.85;97690.76;1742252;81;20973;-70
2022/01/05 09:43:56;;;;;;;8.50;5.47;;;;;;;9.60;76.20;97694.86;1746738;81;21540;-70
2022/01/05 09:46:52;;;;;;;8.50;5.10;;;;;;;9.45;76.01;97698.63;1746296;80;20932;-70
2022/01/05 09:49:33;;;;;;;7.53;4.70;;;;;;;9.31;76.27;97699.12;1744234;81;21057;-71
2022/01/05 09:52:09;;;;;;;8.18;4.90;;;;;;;9.20;76.45;97715.91;1743413;81;20929;-70
2022/01/05 09:54:42;;;;;;;8.38;5.47;;;;;;;9.10;76.79;97716.67;1747529;81;21011;-72
2022/01/05 09:57:09;;;;;;;7.95;5.05;;;;;;;9.03;77.02;97725.29;1747257;80;21207;-71
2022/01/05 09:59:36;;;;;;;7.28;5.03;;;;;;;8.98;77.08;97724.42;1743133;81;21477;-72
2022/01/05 10:02:04;;;;;;;7.55;4.78;;;;;;;8.98;77.16;97724.98;1744670;80;21010;-72
2022/01/05 10:04:36;;;;;;;6.92;5.10;;;;;;;8.95;77.21;97734.74;1747132;80;20949;-70
2022/01/05 10:07:05;;;;;;;12.75;5.80;;;;;;;8.95;77.16;97742.98;1746886;80;20977;-72
2022/01/05 10:09:33;;;;;;;10.32;5.87;;;;;;;8.94;77.15;97749.61;1738433;80;21080;-69
2022/01/05 10:12:04;;;;;;;8.73;5.50;;;;;;;8.94;77.25;97740.59;1746024;81;21078;-70
2022/01/05 10:14:31;;;;;;;12.18;5.87;;;;;;;8.91;77.42;97748.95;1744697;81;20924;-68
2022/01/05 10:17:14;;;;;;;10.63;5.80;;;;;;;8.90;77.61;97758.34;1742052;81;20984;-69
2022/01/05 10:19:46;;;;;;;10.00;5.17;;;;;;;8.90;77.88;97762.47;1743285;81;20971;-69
2022/01/05 10:22:38;;;;;;;10.82;6.58;;;;;;;8.91;77.96;97757.19;1743300;81;20985;-70
2022/01/05 10:25:09;;;;;;;9.35;5.90;;;;;;;8.93;78.25;97759.58;1743754;81;21398;-66
2022/01/05 10:27:36;;;;;;;8.25;5.97;;;;;;;8.95;78.31;97762.21;1742636;81;20981;-71
2022/01/05 10:30:12;;;;;;;8.50;5.90;;;;;;;8.96;78.45;97765.17;1743380;81;20949;-68
2022/01/05 10:32:45;;;;;;;8.68;5.47;;;;;;;8.94;78.14;97754.33;1717892;82;21023;-69
2022/01/05 10:35:17;;;;;;;7.35;4.83;;;;;;;8.88;77.35;97762.02;1724677;81;21585;-70
2022/01/05 10:37:47;;;;;;;10.17;5.27;;;;;;;8.79;76.90;97762.17;1745412;80;20937;-67
2022/01/05 10:40:20;;;;;;;7.95;4.78;;;;;;;8.75;76.54;97757.95;1743609;82;21418;-71
2022/01/05 10:42:53;;;;;;;8.25;5.87;;;;;;;8.73;76.33;97763.02;1744566;80;20972;-70
2022/01/05 10:45:24;;;;;;;9.78;5.50;;;;;;;8.66;75.92;97760.63;1740395;81;20988;-69
2022/01/05 10:48:07;;;;;;;9.98;6.17;;;;;;;8.57;75.89;97766.27;1745223;81;21250;-70
2022/01/05 10:50:35;;;;;;;12.23;6.62;;;;;;;8.53;76.29;97753.78;1742266;80;20923;-71
2022/01/05 10:53:04;;;;;;;8.15;5.72;;;;;;;8.53;76.33;97749.09;1743650;81;20937;-70
2022/01/05 10:55:43;;;;;;;7.55;5.00;;;;;;;8.53;76.14;97757.34;1744235;81;20937;-70
2022/01/05 10:58:14;;;;;;;9.28;5.53;;;;;;;8.55;76.35;97760.33;1743954;81;21041;-70
2022/01/05 11:00:55;;;;;;;13.88;6.45;;;;;;;8.58;76.33;97750.04;1745329;81;20897;-70
2022/01/05 11:03:26;;;;;;;9.35;5.67;;;;;;;8.60;76.34;97747.16;1742081;80;21545;-71
2022/01/05 11:06:09;;;;;;;10.32;6.40;;;;;;;8.63;76.28;97749.20;1744224;81;20877;-70
2022/01/05 11:08:56;;;;;;;12.00;7.40;;;;;;;8.69;76.39;97752.50;1743460;81;21413;-71
2022/01/05 11:11:42;;;;;;;;;;;;;;;8.76;76.74;97754.07;1745122;80;21100;-72
2022/01/05 11:14:34;;;;;;;8.90;5.75;;;;;;;8.94;76.80;97750.98;1741677;81;21541;-72
2022/01/05 11:17:05;;;;;;;11.05;6.42;;;;;;;9.06;76.46;97754.83;1740884;81;21080;-71
2022/01/05 11:19:37;;;;;;;11.40;6.28;;;;;;;9.18;76.09;97758.08;1742686;81;20973;-71
2022/01/05 11:22:15;;;;;;;7.78;5.50;;;;;;;9.26;75.99;97769.47;1745947;81;22068;-67
2022/01/05 11:24:51;;;;;;;11.60;6.15;;;;;;;9.33;75.50;97768.84;1747525;81;20941;-68
2022/01/05 11:27:25;;;;;;;7.80;5.58;;;;;;;9.35;75.31;97769.27;1743467;81;20997;-70
2022/01/05 11:29:53;;;;;;;12.18;7.22;;;;;;;9.40;75.26;97770.38;1746146;81;20984;-70
2022/01/05 11:32:27;;;;;;;14.47;6.30;;;;;;;9.49;75.34;97774.33;1717677;82;21145;-72
2022/01/05 11:34:55;;;;;;;14.50;6.58;;;;;;;9.55;75.07;97777.61;1743361;81;20983;-70
2022/01/05 11:37:22;;;;;;;16.45;7.67;;;;;;;9.57;74.85;97779.44;1744632;81;21477;-70
2022/01/05 11:39:52;;;;;;;13.15;7.97;;;;;;;9.57;74.66;97771.97;1745240;81;21172;-69
2022/01/05 11:42:30;;;;;;;12.53;7.72;;;;;;;9.56;74.70;97775.87;1746491;81;21453;-71
2022/01/05 11:44:57;;;;;;;15.55;7.58;;;;;;;9.57;74.87;97783.56;1745291;81;21036;-71
2022/01/05 11:47:27;;;;;;;15.65;8.05;;;;;;;9.60;74.65;97778.72;1744085;80;21063;-70
2022/01/05 11:50:15;;;;;;;16.57;8.15;;;;;;;9.64;74.83;97780.97;1743690;81;21024;-68
2022/01/05 11:52:59;;;;;;;11.95;6.75;;;;;;;9.65;74.79;97788.64;1742401;81;21890;-70